sensor_id;sensor_type;location;lat;lon;timestamp;P1;durP1;ratioP1;P2;durP2;ratioP2
46729;SDS011;32476;50.002;11.854;2023-02-13T00:00:32;2.70;;;1.70;;
46729;SDS011;32476;50.002;11.854;2023-02-13T00:02:59;2.50;;;2.30;;
46729;SDS011;32476;50.002;11.854;2023-02-13T00:05:27;3.53;;;2.10;;
46729;SDS011;32476;50.002;11.854;2023-02-13T00:07:53;3.70;;;2.57;;
46729;SDS011;32476;50.002;11.854;2023-02-13T00:10:19;3.33;;;1.93;;
46729;SDS011;32476;50.002;11.854;2023-02-13T00:12:46;2.37;;;1.87;;
46729;SDS011;32476;50.002;11.854;2023-02-13T00:15:12;4.00;;;2.00;;
46729;SDS011;32476;50.002;11.854;2023-02-13T00:17:38;5.43;;;1.60;;
46729;SDS011;32476;50.002;11.854;2023-02-13T00:20:06;3.13;;;2.07;;
46729;SDS011;32476;50.002;11.854;2023-02-13T00:22:37;2.20;;;2.00;;
46729;SDS011;32476;50.002;11.854;2023-02-13T00:25:06;2.13;;;1.50;;
46729;SDS011;32476;50.002;11.854;2023-02-13T00:27:32;2.20;;;1.60;;
46729;SDS011;32476;50.002;11.854;2023-02-13T00:29:58;3.80;;;1.60;;
46729;SDS011;32476;50.002;11.854;2023-02-13T00:32:26;2.83;;;1.60;;
46729;SDS011;32476;50.002;11.854;2023-02-13T00:34:52;1.60;;;1.40;;
46729;SDS011;32476;50.002;11.854;2023-02-13T00:37:17;2.70;;;1.30;;
46729;SDS011;32476;50.002;11.854;2023-02-13T00:39:45;2.50;;;1.70;;
46729;SDS011;32476;50.002;11.854;2023-02-13T00:42:11;2.40;;;1.60;;
46729;SDS011;32476;50.002;11.854;2023-02-13T00:44:37;2.90;;;1.43;;
46729;SDS011;32476;50.002;11.854;2023-02-13T00:47:04;2.13;;;1.67;;
46729;SDS011;32476;50.002;11.854;2023-02-13T00:49:30;1.40;;;1.30;;
46729;SDS011;32476;50.002;11.854;2023-02-13T00:51:56;1.77;;;1.50;;
46729;SDS011;32476;50.002;11.854;2023-02-13T00:54:23;2.77;;;1.60;;
46729;SDS011;32476;50.002;11.854;2023-02-13T00:56:49;1.60;;;1.30;;
46729;SDS011;32476;50.002;11.854;2023-02-13T00:59:15;2.10;;;1.53;;
46729;SDS011;32476;50.002;11.854;2023-02-13T01:01:43;1.73;;;1.40;;
46729;SDS011;32476;50.002;11.854;2023-02-13T01:04:09;1.93;;;1.73;;
46729;SDS011;32476;50.002;11.854;2023-02-13T01:06:35;1.70;;;1.50;;
46729;SDS011;32476;50.002;11.854;2023-02-13T01:09:03;1.77;;;1.50;;
46729;SDS011;32476;50.002;11.854;2023-02-13T01:11:29;1.47;;;1.30;;
46729;SDS011;32476;50.002;11.854;2023-02-13T01:13:55;1.50;;;1.30;;
46729;SDS011;32476;50.002;11.854;2023-02-13T01:16:23;1.87;;;1.50;;
46729;SDS011;32476;50.002;11.854;2023-02-13T01:18:49;3.20;;;1.60;;
46729;SDS011;32476;50.002;11.854;2023-02-13T01:21:19;1.40;;;1.30;;
46729;SDS011;32476;50.002;11.854;2023-02-13T01:23:49;1.83;;;1.50;;
46729;SDS011;32476;50.002;11.854;2023-02-13T01:26:17;1.67;;;1.40;;
46729;SDS011;32476;50.002;11.854;2023-02-13T01:28:46;2.23;;;1.60;;
46729;SDS011;32476;50.002;11.854;2023-02-13T01:31:14;3.80;;;1.60;;
46729;SDS011;32476;50.002;11.854;2023-02-13T01:33:40;1.73;;;1.53;;
46729;SDS011;32476;50.002;11.854;2023-02-13T01:36:06;1.90;;;1.50;;
46729;SDS011;32476;50.002;11.854;2023-02-13T01:38:36;2.27;;;1.53;;
46729;SDS011;32476;50.002;11.854;2023-02-13T01:41:02;3.77;;;1.60;;
46729;SDS011;32476;50.002;11.854;2023-02-13T01:43:42;2.10;;;1.50;;
46729;SDS011;32476;50.002;11.854;2023-02-13T01:46:15;3.13;;;2.07;;
46729;SDS011;32476;50.002;11.854;2023-02-13T01:49:14;2.90;;;1.90;;
46729;SDS011;32476;50.002;11.854;2023-02-13T01:51:47;4.90;;;1.93;;
46729;SDS011;32476;50.002;11.854;2023-02-13T01:54:18;2.00;;;1.60;;
46729;SDS011;32476;50.002;11.854;2023-02-13T01:56:57;2.63;;;1.67;;
46729;SDS011;32476;50.002;11.854;2023-02-13T01:59:33;2.90;;;2.00;;
46729;SDS011;32476;50.002;11.854;2023-02-13T02:02:10;2.07;;;1.60;;
46729;SDS011;32476;50.002;11.854;2023-02-13T02:04:37;2.03;;;1.60;;
46729;SDS011;32476;50.002;11.854;2023-02-13T02:07:07;1.93;;;1.57;;
46729;SDS011;32476;50.002;11.854;2023-02-13T02:09:50;2.00;;;1.50;;
46729;SDS011;32476;50.002;11.854;2023-02-13T02:12:26;2.17;;;1.60;;
46729;SDS011;32476;50.002;11.854;2023-02-13T02:15:02;2.10;;;1.70;;
46729;SDS011;32476;50.002;11.854;2023-02-13T02:17:30;2.03;;;1.20;;
46729;SDS011;32476;50.002;11.854;2023-02-13T02:20:03;2.73;;;1.67;;
46729;SDS011;32476;50.002;11.854;2023-02-13T02:43:03;4.87;;;2.10;;
46729;SDS011;32476;50.002;11.854;2023-02-13T02:46:20;4.97;;;2.60;;
46729;SDS011;32476;50.002;11.854;2023-02-13T02:49:03;2.47;;;1.63;;
46729;SDS011;32476;50.002;11.854;2023-02-13T02:52:06;3.73;;;2.13;;
46729;SDS011;32476;50.002;11.854;2023-02-13T02:57:41;3.53;;;2.13;;
46729;SDS011;32476;50.002;11.854;2023-02-13T03:00:32;3.50;;;1.80;;
46729;SDS011;32476;50.002;11.854;2023-02-13T03:03:24;2.73;;;2.00;;
46729;SDS011;32476;50.002;11.854;2023-02-13T03:06:11;3.37;;;1.70;;
46729;SDS011;32476;50.002;11.854;2023-02-13T03:08:50;3.00;;;1.87;;
46729;SDS011;32476;50.002;11.854;2023-02-13T03:11:39;3.93;;;1.67;;
46729;SDS011;32476;50.002;11.854;2023-02-13T03:14:26;3.30;;;2.13;;
46729;SDS011;32476;50.002;11.854;2023-02-13T03:16:53;3.27;;;1.90;;
46729;SDS011;32476;50.002;11.854;2023-02-13T03:22:54;2.60;;;1.87;;
46729;SDS011;32476;50.002;11.854;2023-02-13T03:28:35;2.17;;;1.70;;
46729;SDS011;32476;50.002;11.854;2023-02-13T03:34:26;1.70;;;1.40;;
46729;SDS011;32476;50.002;11.854;2023-02-13T03:37:24;3.47;;;1.80;;
46729;SDS011;32476;50.002;11.854;2023-02-13T03:40:15;2.90;;;2.00;;
46729;SDS011;32476;50.002;11.854;2023-02-13T03:42:54;3.00;;;2.23;;
46729;SDS011;32476;50.002;11.854;2023-02-13T03:45:36;3.43;;;2.13;;
46729;SDS011;32476;50.002;11.854;2023-02-13T03:48:32;2.77;;;2.30;;
46729;SDS011;32476;50.002;11.854;2023-02-13T03:51:23;3.57;;;2.57;;
46729;SDS011;32476;50.002;11.854;2023-02-13T03:53:56;10.07;;;7.13;;
46729;SDS011;32476;50.002;11.854;2023-02-13T03:56:26;3.13;;;2.27;;
46729;SDS011;32476;50.002;11.854;2023-02-13T03:59:22;2.97;;;2.03;;
46729;SDS011;32476;50.002;11.854;2023-02-13T04:01:58;2.03;;;1.77;;
46729;SDS011;32476;50.002;11.854;2023-02-13T04:07:06;2.30;;;1.80;;
46729;SDS011;32476;50.002;11.854;2023-02-13T04:09:39;2.70;;;2.27;;
46729;SDS011;32476;50.002;11.854;2023-02-13T04:12:20;2.23;;;1.53;;
46729;SDS011;32476;50.002;11.854;2023-02-13T04:15:35;4.67;;;1.90;;
46729;SDS011;32476;50.002;11.854;2023-02-13T04:18:16;5.17;;;2.13;;
46729;SDS011;32476;50.002;11.854;2023-02-13T04:20:47;2.50;;;1.70;;
46729;SDS011;32476;50.002;11.854;2023-02-13T04:23:13;2.90;;;2.00;;
46729;SDS011;32476;50.002;11.854;2023-02-13T04:25:40;3.67;;;1.80;;
46729;SDS011;32476;50.002;11.854;2023-02-13T04:28:12;2.83;;;1.73;;
46729;SDS011;32476;50.002;11.854;2023-02-13T04:30:38;2.87;;;2.13;;
46729;SDS011;32476;50.002;11.854;2023-02-13T04:33:04;2.67;;;2.03;;
46729;SDS011;32476;50.002;11.854;2023-02-13T04:35:31;3.30;;;1.93;;
46729;SDS011;32476;50.002;11.854;2023-02-13T04:37:57;2.63;;;1.90;;
46729;SDS011;32476;50.002;11.854;2023-02-13T04:40:23;2.43;;;1.97;;
46729;SDS011;32476;50.002;11.854;2023-02-13T04:42:51;2.23;;;2.00;;
46729;SDS011;32476;50.002;11.854;2023-02-13T04:45:17;2.10;;;1.80;;
46729;SDS011;32476;50.002;11.854;2023-02-13T04:47:48;2.40;;;1.93;;
46729;SDS011;32476;50.002;11.854;2023-02-13T04:50:21;2.07;;;1.87;;
46729;SDS011;32476;50.002;11.854;2023-02-13T04:52:55;2.33;;;1.73;;
46729;SDS011;32476;50.002;11.854;2023-02-13T04:55:24;3.30;;;2.20;;
46729;SDS011;32476;50.002;11.854;2023-02-13T04:57:52;5.80;;;3.43;;
46729;SDS011;32476;50.002;11.854;2023-02-13T05:00:19;4.63;;;2.83;;
46729;SDS011;32476;50.002;11.854;2023-02-13T05:03:04;4.77;;;2.50;;
46729;SDS011;32476;50.002;11.854;2023-02-13T05:05:32;3.07;;;2.13;;
46729;SDS011;32476;50.002;11.854;2023-02-13T05:08:00;2.90;;;2.30;;
46729;SDS011;32476;50.002;11.854;2023-02-13T05:10:27;2.43;;;2.10;;
46729;SDS011;32476;50.002;11.854;2023-02-13T05:12:53;4.80;;;3.03;;
46729;SDS011;32476;50.002;11.854;2023-02-13T05:15:21;10.23;;;4.37;;
46729;SDS011;32476;50.002;11.854;2023-02-13T05:17:48;4.87;;;3.30;;
46729;SDS011;32476;50.002;11.854;2023-02-13T05:20:14;2.93;;;2.60;;
46729;SDS011;32476;50.002;11.854;2023-02-13T05:22:45;3.13;;;2.50;;
46729;SDS011;32476;50.002;11.854;2023-02-13T05:25:33;3.77;;;2.80;;
46729;SDS011;32476;50.002;11.854;2023-02-13T05:28:02;4.20;;;2.93;;
46729;SDS011;32476;50.002;11.854;2023-02-13T05:30:29;4.77;;;2.53;;
46729;SDS011;32476;50.002;11.854;2023-02-13T05:32:55;5.63;;;3.60;;
46729;SDS011;32476;50.002;11.854;2023-02-13T05:35:22;7.00;;;4.27;;
46729;SDS011;32476;50.002;11.854;2023-02-13T05:37:49;10.60;;;4.40;;
46729;SDS011;32476;50.002;11.854;2023-02-13T05:40:15;6.67;;;2.93;;
46729;SDS011;32476;50.002;11.854;2023-02-13T05:42:43;7.70;;;4.50;;
46729;SDS011;32476;50.002;11.854;2023-02-13T05:45:09;7.80;;;4.53;;
46729;SDS011;32476;50.002;11.854;2023-02-13T05:47:36;4.60;;;3.10;;
46729;SDS011;32476;50.002;11.854;2023-02-13T05:50:04;11.70;;;5.47;;
46729;SDS011;32476;50.002;11.854;2023-02-13T05:52:31;10.43;;;6.27;;
46729;SDS011;32476;50.002;11.854;2023-02-13T05:54:56;12.77;;;5.27;;
46729;SDS011;32476;50.002;11.854;2023-02-13T05:57:24;8.93;;;4.93;;
46729;SDS011;32476;50.002;11.854;2023-02-13T05:59:50;3.80;;;3.10;;
46729;SDS011;32476;50.002;11.854;2023-02-13T06:02:16;5.43;;;3.53;;
46729;SDS011;32476;50.002;11.854;2023-02-13T06:04:43;5.23;;;3.43;;
46729;SDS011;32476;50.002;11.854;2023-02-13T06:07:09;5.63;;;3.73;;
46729;SDS011;32476;50.002;11.854;2023-02-13T06:09:35;4.20;;;3.03;;
46729;SDS011;32476;50.002;11.854;2023-02-13T06:12:02;6.10;;;3.57;;
46729;SDS011;32476;50.002;11.854;2023-02-13T06:14:29;4.77;;;3.53;;
46729;SDS011;32476;50.002;11.854;2023-02-13T06:16:54;4.10;;;2.83;;
46729;SDS011;32476;50.002;11.854;2023-02-13T06:19:22;6.17;;;4.43;;
46729;SDS011;32476;50.002;11.854;2023-02-13T06:21:48;8.40;;;5.10;;
46729;SDS011;32476;50.002;11.854;2023-02-13T06:24:14;7.47;;;5.53;;
46729;SDS011;32476;50.002;11.854;2023-02-13T06:26:41;7.77;;;4.73;;
46729;SDS011;32476;50.002;11.854;2023-02-13T06:29:07;5.10;;;3.70;;
46729;SDS011;32476;50.002;11.854;2023-02-13T06:31:33;6.13;;;3.83;;
46729;SDS011;32476;50.002;11.854;2023-02-13T06:34:01;7.57;;;5.07;;
46729;SDS011;32476;50.002;11.854;2023-02-13T06:36:27;7.70;;;5.27;;
46729;SDS011;32476;50.002;11.854;2023-02-13T06:38:53;5.47;;;3.77;;
46729;SDS011;32476;50.002;11.854;2023-02-13T06:41:20;6.33;;;4.40;;
46729;SDS011;32476;50.002;11.854;2023-02-13T06:43:47;6.47;;;4.43;;
46729;SDS011;32476;50.002;11.854;2023-02-13T06:46:13;7.57;;;4.50;;
46729;SDS011;32476;50.002;11.854;2023-02-13T06:48:40;5.10;;;3.67;;
46729;SDS011;32476;50.002;11.854;2023-02-13T06:51:06;7.27;;;4.37;;
46729;SDS011;32476;50.002;11.854;2023-02-13T06:53:32;5.53;;;4.00;;
46729;SDS011;32476;50.002;11.854;2023-02-13T06:56:01;4.40;;;3.57;;
46729;SDS011;32476;50.002;11.854;2023-02-13T06:58:32;4.97;;;3.20;;
46729;SDS011;32476;50.002;11.854;2023-02-13T07:01:00;7.87;;;4.87;;
46729;SDS011;32476;50.002;11.854;2023-02-13T07:03:26;8.17;;;5.73;;
46729;SDS011;32476;50.002;11.854;2023-02-13T07:05:52;8.43;;;5.77;;
46729;SDS011;32476;50.002;11.854;2023-02-13T07:08:19;9.83;;;6.37;;
46729;SDS011;32476;50.002;11.854;2023-02-13T07:10:45;29.60;;;16.37;;
46729;SDS011;32476;50.002;11.854;2023-02-13T07:13:11;14.00;;;8.50;;
46729;SDS011;32476;50.002;11.854;2023-02-13T07:15:38;18.47;;;10.70;;
46729;SDS011;32476;50.002;11.854;2023-02-13T07:18:04;14.83;;;8.83;;
46729;SDS011;32476;50.002;11.854;2023-02-13T07:20:31;14.43;;;9.50;;
46729;SDS011;32476;50.002;11.854;2023-02-13T07:23:00;11.03;;;7.40;;
46729;SDS011;32476;50.002;11.854;2023-02-13T07:25:28;9.37;;;6.33;;
46729;SDS011;32476;50.002;11.854;2023-02-13T07:27:59;8.30;;;5.60;;
46729;SDS011;32476;50.002;11.854;2023-02-13T07:30:29;13.13;;;8.33;;
46729;SDS011;32476;50.002;11.854;2023-02-13T07:33:03;14.10;;;9.00;;
46729;SDS011;32476;50.002;11.854;2023-02-13T07:35:31;11.43;;;7.10;;
46729;SDS011;32476;50.002;11.854;2023-02-13T07:37:57;12.60;;;7.40;;
46729;SDS011;32476;50.002;11.854;2023-02-13T07:40:24;6.63;;;4.70;;
46729;SDS011;32476;50.002;11.854;2023-02-13T07:42:52;5.63;;;4.57;;
46729;SDS011;32476;50.002;11.854;2023-02-13T07:45:18;6.97;;;4.23;;
46729;SDS011;32476;50.002;11.854;2023-02-13T07:47:44;6.30;;;3.50;;
46729;SDS011;32476;50.002;11.854;2023-02-13T07:50:11;5.87;;;3.87;;
46729;SDS011;32476;50.002;11.854;2023-02-13T07:52:37;7.63;;;4.90;;
46729;SDS011;32476;50.002;11.854;2023-02-13T07:55:04;7.50;;;5.40;;
46729;SDS011;32476;50.002;11.854;2023-02-13T07:57:32;7.50;;;5.10;;
46729;SDS011;32476;50.002;11.854;2023-02-13T07:59:58;9.37;;;5.30;;
46729;SDS011;32476;50.002;11.854;2023-02-13T08:02:24;7.53;;;4.97;;
46729;SDS011;32476;50.002;11.854;2023-02-13T08:04:51;8.00;;;4.70;;
46729;SDS011;32476;50.002;11.854;2023-02-13T08:07:17;12.47;;;7.27;;
46729;SDS011;32476;50.002;11.854;2023-02-13T08:09:44;15.53;;;9.20;;
46729;SDS011;32476;50.002;11.854;2023-02-13T08:12:32;22.10;;;12.00;;
46729;SDS011;32476;50.002;11.854;2023-02-13T08:15:00;21.00;;;12.50;;
46729;SDS011;32476;50.002;11.854;2023-02-13T08:17:26;22.00;;;12.67;;
46729;SDS011;32476;50.002;11.854;2023-02-13T08:19:53;24.23;;;15.37;;
46729;SDS011;32476;50.002;11.854;2023-02-13T08:22:19;21.13;;;12.03;;
46729;SDS011;32476;50.002;11.854;2023-02-13T08:24:45;35.40;;;16.63;;
46729;SDS011;32476;50.002;11.854;2023-02-13T08:27:13;71.33;;;32.23;;
46729;SDS011;32476;50.002;11.854;2023-02-13T08:29:39;38.47;;;18.60;;
46729;SDS011;32476;50.002;11.854;2023-02-13T08:32:06;22.07;;;11.27;;
46729;SDS011;32476;50.002;11.854;2023-02-13T08:34:34;24.33;;;13.33;;
46729;SDS011;32476;50.002;11.854;2023-02-13T08:37:00;15.70;;;10.67;;
46729;SDS011;32476;50.002;11.854;2023-02-13T08:39:27;21.43;;;11.70;;
46729;SDS011;32476;50.002;11.854;2023-02-13T08:41:54;16.77;;;10.60;;
46729;SDS011;32476;50.002;11.854;2023-02-13T08:44:20;8.53;;;5.13;;
46729;SDS011;32476;50.002;11.854;2023-02-13T08:46:46;12.40;;;7.53;;
46729;SDS011;32476;50.002;11.854;2023-02-13T08:49:14;11.67;;;7.67;;
46729;SDS011;32476;50.002;11.854;2023-02-13T08:51:39;4.83;;;2.90;;
46729;SDS011;32476;50.002;11.854;2023-02-13T08:54:05;5.23;;;3.53;;
46729;SDS011;32476;50.002;11.854;2023-02-13T08:56:33;4.73;;;3.50;;
46729;SDS011;32476;50.002;11.854;2023-02-13T08:58:59;3.67;;;2.23;;
46729;SDS011;32476;50.002;11.854;2023-02-13T09:01:25;3.80;;;2.90;;
46729;SDS011;32476;50.002;11.854;2023-02-13T09:03:52;3.67;;;2.80;;
46729;SDS011;32476;50.002;11.854;2023-02-13T09:06:19;2.93;;;2.40;;
46729;SDS011;32476;50.002;11.854;2023-02-13T09:08:46;4.33;;;2.37;;
46729;SDS011;32476;50.002;11.854;2023-02-13T09:11:13;2.90;;;2.17;;
46729;SDS011;32476;50.002;11.854;2023-02-13T09:13:39;4.57;;;3.67;;
46729;SDS011;32476;50.002;11.854;2023-02-13T09:16:06;2.83;;;2.53;;
46729;SDS011;32476;50.002;11.854;2023-02-13T09:18:34;4.10;;;3.20;;
46729;SDS011;32476;50.002;11.854;2023-02-13T09:21:04;16.57;;;6.60;;
46729;SDS011;32476;50.002;11.854;2023-02-13T09:23:35;12.00;;;7.60;;
46729;SDS011;32476;50.002;11.854;2023-02-13T09:26:05;4.13;;;2.57;;
46729;SDS011;32476;50.002;11.854;2023-02-13T09:28:40;2.77;;;2.20;;
46729;SDS011;32476;50.002;11.854;2023-02-13T09:31:07;3.67;;;2.90;;
46729;SDS011;32476;50.002;11.854;2023-02-13T09:33:46;3.03;;;2.53;;
46729;SDS011;32476;50.002;11.854;2023-02-13T09:36:15;7.50;;;4.27;;
46729;SDS011;32476;50.002;11.854;2023-02-13T09:38:46;4.77;;;3.20;;
46729;SDS011;32476;50.002;11.854;2023-02-13T09:41:27;44.40;;;17.70;;
46729;SDS011;32476;50.002;11.854;2023-02-13T09:43:59;133.93;;;45.77;;
46729;SDS011;32476;50.002;11.854;2023-02-13T09:49:10;16.30;;;7.20;;
46729;SDS011;32476;50.002;11.854;2023-02-13T09:51:41;5.30;;;3.07;;
46729;SDS011;32476;50.002;11.854;2023-02-13T09:54:12;5.00;;;3.27;;
46729;SDS011;32476;50.002;11.854;2023-02-13T10:17:37;4.73;;;1.90;;
46729;SDS011;32476;50.002;11.854;2023-02-13T10:28:36;2.63;;;1.80;;
46729;SDS011;32476;50.002;11.854;2023-02-13T10:31:11;2.40;;;2.20;;
46729;SDS011;32476;50.002;11.854;2023-02-13T10:33:51;2.37;;;2.07;;
46729;SDS011;32476;50.002;11.854;2023-02-13T10:41:53;3.27;;;2.63;;
46729;SDS011;32476;50.002;11.854;2023-02-13T10:45:10;1.70;;;1.60;;
46729;SDS011;32476;50.002;11.854;2023-02-13T10:51:12;1.70;;;1.60;;
46729;SDS011;32476;50.002;11.854;2023-02-13T10:53:55;2.10;;;1.90;;
46729;SDS011;32476;50.002;11.854;2023-02-13T11:02:21;2.70;;;2.50;;
46729;SDS011;32476;50.002;11.854;2023-02-13T11:05:01;3.43;;;1.90;;
46729;SDS011;32476;50.002;11.854;2023-02-13T11:07:54;1.90;;;1.80;;
46729;SDS011;32476;50.002;11.854;2023-02-13T11:10:21;2.10;;;1.90;;
46729;SDS011;32476;50.002;11.854;2023-02-13T11:12:49;2.80;;;2.13;;
46729;SDS011;32476;50.002;11.854;2023-02-13T11:15:25;2.07;;;1.87;;
46729;SDS011;32476;50.002;11.854;2023-02-13T11:17:54;2.53;;;1.87;;
46729;SDS011;32476;50.002;11.854;2023-02-13T11:20:32;2.40;;;1.87;;
46729;SDS011;32476;50.002;11.854;2023-02-13T11:29:04;5.03;;;2.20;;
46729;SDS011;32476;50.002;11.854;2023-02-13T11:31:43;2.20;;;2.00;;
46729;SDS011;32476;50.002;11.854;2023-02-13T11:34:43;3.30;;;2.43;;
46729;SDS011;32476;50.002;11.854;2023-02-13T11:37:08;2.77;;;2.20;;
46729;SDS011;32476;50.002;11.854;2023-02-13T11:39:46;2.50;;;2.30;;
46729;SDS011;32476;50.002;11.854;2023-02-13T11:42:23;2.63;;;2.43;;
46729;SDS011;32476;50.002;11.854;2023-02-13T11:47:31;3.50;;;3.00;;
46729;SDS011;32476;50.002;11.854;2023-02-13T11:53:01;3.93;;;2.83;;
46729;SDS011;32476;50.002;11.854;2023-02-13T11:56:04;5.17;;;3.80;;
46729;SDS011;32476;50.002;11.854;2023-02-13T11:58:41;5.73;;;4.77;;
46729;SDS011;32476;50.002;11.854;2023-02-13T12:03:56;3.33;;;2.93;;
46729;SDS011;32476;50.002;11.854;2023-02-13T12:06:30;3.00;;;2.70;;
46729;SDS011;32476;50.002;11.854;2023-02-13T12:09:11;2.77;;;2.57;;
46729;SDS011;32476;50.002;11.854;2023-02-13T12:11:41;3.00;;;2.70;;
46729;SDS011;32476;50.002;11.854;2023-02-13T12:14:15;3.03;;;2.60;;
46729;SDS011;32476;50.002;11.854;2023-02-13T12:16:53;4.43;;;2.80;;
46729;SDS011;32476;50.002;11.854;2023-02-13T12:22:36;3.00;;;2.70;;
46729;SDS011;32476;50.002;11.854;2023-02-13T12:43:16;3.33;;;3.03;;
46729;SDS011;32476;50.002;11.854;2023-02-13T12:46:09;4.23;;;3.40;;
46729;SDS011;32476;50.002;11.854;2023-02-13T12:51:55;4.23;;;3.70;;
46729;SDS011;32476;50.002;11.854;2023-02-13T12:54:46;4.00;;;3.50;;
46729;SDS011;32476;50.002;11.854;2023-02-13T12:57:56;5.00;;;2.93;;
46729;SDS011;32476;50.002;11.854;2023-02-13T13:04:10;4.03;;;3.20;;
46729;SDS011;32476;50.002;11.854;2023-02-13T13:10:37;3.70;;;3.33;;
46729;SDS011;32476;50.002;11.854;2023-02-13T13:16:08;5.00;;;2.70;;
46729;SDS011;32476;50.002;11.854;2023-02-13T13:22:04;5.10;;;3.90;;
46729;SDS011;32476;50.002;11.854;2023-02-13T13:24:48;6.10;;;3.70;;
46729;SDS011;32476;50.002;11.854;2023-02-13T13:27:44;5.27;;;4.27;;
46729;SDS011;32476;50.002;11.854;2023-02-13T13:33:08;4.93;;;3.43;;
46729;SDS011;32476;50.002;11.854;2023-02-13T13:47:25;4.27;;;3.57;;
46729;SDS011;32476;50.002;11.854;2023-02-13T13:50:38;4.07;;;3.30;;
46729;SDS011;32476;50.002;11.854;2023-02-13T14:03:59;12.77;;;8.77;;
46729;SDS011;32476;50.002;11.854;2023-02-13T14:09:56;4.03;;;3.60;;
46729;SDS011;32476;50.002;11.854;2023-02-13T14:14:51;5.27;;;4.37;;
46729;SDS011;32476;50.002;11.854;2023-02-13T14:20:21;3.13;;;2.80;;
46729;SDS011;32476;50.002;11.854;2023-02-13T14:31:20;3.80;;;3.37;;
46729;SDS011;32476;50.002;11.854;2023-02-13T14:33:53;6.10;;;3.47;;
46729;SDS011;32476;50.002;11.854;2023-02-13T14:36:59;4.83;;;3.33;;
46729;SDS011;32476;50.002;11.854;2023-02-13T14:42:49;4.10;;;3.47;;
46729;SDS011;32476;50.002;11.854;2023-02-13T14:48:36;4.63;;;3.83;;
46729;SDS011;32476;50.002;11.854;2023-02-13T14:51:13;4.37;;;3.33;;
46729;SDS011;32476;50.002;11.854;2023-02-13T14:57:33;4.60;;;3.87;;
46729;SDS011;32476;50.002;11.854;2023-02-13T15:00:00;3.80;;;2.83;;
46729;SDS011;32476;50.002;11.854;2023-02-13T15:02:43;4.03;;;3.30;;
46729;SDS011;32476;50.002;11.854;2023-02-13T15:05:17;5.60;;;4.63;;
46729;SDS011;32476;50.002;11.854;2023-02-13T15:10:42;6.37;;;3.37;;
46729;SDS011;32476;50.002;11.854;2023-02-13T15:15:50;6.00;;;4.00;;
46729;SDS011;32476;50.002;11.854;2023-02-13T15:18:24;5.00;;;4.20;;
46729;SDS011;32476;50.002;11.854;2023-02-13T15:20:55;13.20;;;11.90;;
46729;SDS011;32476;50.002;11.854;2023-02-13T15:23:25;6.17;;;5.53;;
46729;SDS011;32476;50.002;11.854;2023-02-13T15:26:03;3.87;;;3.47;;
46729;SDS011;32476;50.002;11.854;2023-02-13T15:28:31;6.50;;;4.70;;
46729;SDS011;32476;50.002;11.854;2023-02-13T15:31:05;4.33;;;3.73;;
46729;SDS011;32476;50.002;11.854;2023-02-13T15:33:46;4.57;;;3.70;;
46729;SDS011;32476;50.002;11.854;2023-02-13T15:36:18;5.83;;;3.70;;
46729;SDS011;32476;50.002;11.854;2023-02-13T15:38:57;4.00;;;3.43;;
46729;SDS011;32476;50.002;11.854;2023-02-13T15:41:27;4.73;;;4.03;;
46729;SDS011;32476;50.002;11.854;2023-02-13T15:44:00;5.73;;;4.37;;
46729;SDS011;32476;50.002;11.854;2023-02-13T15:46:29;5.50;;;3.80;;
46729;SDS011;32476;50.002;11.854;2023-02-13T15:48:59;4.27;;;3.87;;
46729;SDS011;32476;50.002;11.854;2023-02-13T15:51:32;5.77;;;3.80;;
46729;SDS011;32476;50.002;11.854;2023-02-13T15:54:03;3.73;;;3.33;;
46729;SDS011;32476;50.002;11.854;2023-02-13T15:56:32;5.53;;;4.83;;
46729;SDS011;32476;50.002;11.854;2023-02-13T15:58:59;11.40;;;7.23;;
46729;SDS011;32476;50.002;11.854;2023-02-13T16:01:26;48.13;;;30.53;;
46729;SDS011;32476;50.002;11.854;2023-02-13T16:04:02;24.33;;;16.93;;
46729;SDS011;32476;50.002;11.854;2023-02-13T16:06:31;21.30;;;14.90;;
46729;SDS011;32476;50.002;11.854;2023-02-13T16:08:59;18.70;;;12.53;;
46729;SDS011;32476;50.002;11.854;2023-02-13T16:11:36;12.20;;;9.57;;
46729;SDS011;32476;50.002;11.854;2023-02-13T16:14:21;23.43;;;20.07;;
46729;SDS011;32476;50.002;11.854;2023-02-13T16:16:51;16.17;;;13.13;;
46729;SDS011;32476;50.002;11.854;2023-02-13T16:19:25;30.33;;;19.80;;
46729;SDS011;32476;50.002;11.854;2023-02-13T16:22:24;15.80;;;11.07;;
46729;SDS011;32476;50.002;11.854;2023-02-13T16:25:09;15.27;;;11.10;;
46729;SDS011;32476;50.002;11.854;2023-02-13T16:27:41;13.27;;;10.23;;
46729;SDS011;32476;50.002;11.854;2023-02-13T16:30:21;16.37;;;9.90;;
46729;SDS011;32476;50.002;11.854;2023-02-13T16:32:47;22.83;;;15.93;;
46729;SDS011;32476;50.002;11.854;2023-02-13T16:35:16;21.50;;;13.80;;
46729;SDS011;32476;50.002;11.854;2023-02-13T16:37:55;24.73;;;15.40;;
46729;SDS011;32476;50.002;11.854;2023-02-13T16:40:38;19.47;;;12.30;;
46729;SDS011;32476;50.002;11.854;2023-02-13T16:46:25;29.47;;;17.33;;
46729;SDS011;32476;50.002;11.854;2023-02-13T16:54:00;16.93;;;11.07;;
46729;SDS011;32476;50.002;11.854;2023-02-13T16:56:44;18.37;;;11.83;;
46729;SDS011;32476;50.002;11.854;2023-02-13T17:07:45;26.00;;;14.50;;
46729;SDS011;32476;50.002;11.854;2023-02-13T17:10:22;18.70;;;12.57;;
46729;SDS011;32476;50.002;11.854;2023-02-13T17:12:54;19.47;;;12.17;;
46729;SDS011;32476;50.002;11.854;2023-02-13T17:15:24;17.77;;;12.30;;
46729;SDS011;32476;50.002;11.854;2023-02-13T17:17:58;14.13;;;10.20;;
46729;SDS011;32476;50.002;11.854;2023-02-13T17:20:32;17.83;;;11.17;;
46729;SDS011;32476;50.002;11.854;2023-02-13T17:23:02;54.53;;;32.40;;
46729;SDS011;32476;50.002;11.854;2023-02-13T17:25:31;44.83;;;28.17;;
46729;SDS011;32476;50.002;11.854;2023-02-13T17:28:06;84.57;;;47.70;;
46729;SDS011;32476;50.002;11.854;2023-02-13T17:30:41;87.43;;;45.43;;
46729;SDS011;32476;50.002;11.854;2023-02-13T17:33:11;47.00;;;26.03;;
46729;SDS011;32476;50.002;11.854;2023-02-13T17:35:50;64.60;;;32.10;;
46729;SDS011;32476;50.002;11.854;2023-02-13T17:38:18;58.50;;;29.10;;
46729;SDS011;32476;50.002;11.854;2023-02-13T17:40:45;44.23;;;23.63;;
46729;SDS011;32476;50.002;11.854;2023-02-13T17:43:12;27.30;;;14.30;;
46729;SDS011;32476;50.002;11.854;2023-02-13T17:45:42;21.83;;;13.77;;
46729;SDS011;32476;50.002;11.854;2023-02-13T17:48:08;20.53;;;11.77;;
46729;SDS011;32476;50.002;11.854;2023-02-13T17:50:34;23.40;;;13.47;;
46729;SDS011;32476;50.002;11.854;2023-02-13T17:53:04;34.70;;;19.97;;
46729;SDS011;32476;50.002;11.854;2023-02-13T17:55:33;37.13;;;20.97;;
46729;SDS011;32476;50.002;11.854;2023-02-13T17:57:59;36.63;;;20.87;;
46729;SDS011;32476;50.002;11.854;2023-02-13T18:00:28;18.87;;;11.50;;
46729;SDS011;32476;50.002;11.854;2023-02-13T18:02:58;18.07;;;11.10;;
46729;SDS011;32476;50.002;11.854;2023-02-13T18:05:27;15.60;;;9.63;;
46729;SDS011;32476;50.002;11.854;2023-02-13T18:07:53;14.80;;;10.77;;
46729;SDS011;32476;50.002;11.854;2023-02-13T18:10:21;25.87;;;16.83;;
46729;SDS011;32476;50.002;11.854;2023-02-13T18:12:52;29.60;;;18.23;;
46729;SDS011;32476;50.002;11.854;2023-02-13T18:15:20;25.20;;;17.30;;
46729;SDS011;32476;50.002;11.854;2023-02-13T18:17:47;26.37;;;16.07;;
46729;SDS011;32476;50.002;11.854;2023-02-13T18:20:16;21.17;;;14.13;;
46729;SDS011;32476;50.002;11.854;2023-02-13T18:22:44;22.17;;;14.07;;
46729;SDS011;32476;50.002;11.854;2023-02-13T18:25:11;20.57;;;14.90;;
46729;SDS011;32476;50.002;11.854;2023-02-13T18:27:39;19.03;;;14.40;;